Time;durP1;ratioP1;P1;durP2;ratioP2;P2;SDS_P1;SDS_P2;PMS_P1;PMS_P2;Temp;Humidity;BMP_temperature;BMP_pressure;BME280_temperature;BME280_humidity;BME280_pressure;Samples;Min_cycle;Max_cycle;Signal;HPM_P1;HPM_P2
2022/02/24 00:02:22;;;;;;;3.88;1.58;;;;;;;;;;4971745;28;20063;-68
2022/02/24 00:04:51;;;;;;;3.40;1.27;;;;;;;;;;4972005;28;20521;-68
2022/02/24 00:07:20;;;;;;;4.85;1.55;;;;;;;;;;4971178;28;20057;-68
2022/02/24 00:09:48;;;;;;;3.10;1.08;;;;;;;;;;4971074;28;20050;-68
2022/02/24 00:12:16;;;;;;;2.00;1.40;;;;;;;;;;4970366;28;20127;-68
2022/02/24 00:14:46;;;;;;;3.30;1.30;;;;;;;;;;4972119;28;20084;-68
2022/02/24 00:17:15;;;;;;;2.88;1.48;;;;;;;;;;4971291;28;20042;-68
2022/02/24 00:19:44;;;;;;;4.05;1.90;;;;;;;;;;4970679;28;20051;-68
2022/02/24 00:22:12;;;;;;;1.45;1.10;;;;;;;;;;4966746;28;20045;-68
2022/02/24 00:24:40;;;;;;;5.18;1.30;;;;;;;;;;4972057;28;20133;-68
2022/02/24 00:27:09;;;;;;;2.25;1.30;;;;;;;;;;4967695;28;20186;-68
2022/02/24 00:29:37;;;;;;;5.45;1.40;;;;;;;;;;4969443;28;20126;-68
2022/02/24 00:32:10;;;;;;;4.03;1.92;;;;;;;;;;4971314;28;20047;-68
2022/02/24 00:34:38;;;;;;;2.20;1.50;;;;;;;;;;4971401;28;20055;-68
2022/02/24 00:37:07;;;;;;;2.95;1.30;;;;;;;;;;4971723;28;20452;-68
2022/02/24 00:39:35;;;;;;;7.35;1.48;;;;;;;;;;4966673;28;20082;-68
2022/02/24 00:42:04;;;;;;;3.92;1.67;;;;;;;;;;4968405;28;20125;-68
2022/02/24 00:44:32;;;;;;;6.63;1.60;;;;;;;;;;4969871;28;20106;-68
2022/02/24 00:47:16;;;;;;;2.58;1.07;;;;;;;;;;3158468;28;10002309;-68
2022/02/24 00:49:45;;;;;;;1.95;1.30;;;;;;;;;;2909904;28;10001662;-68
2022/02/24 00:52:14;;;;;;;3.28;1.25;;;;;;;;;;4970140;28;20051;-68
2022/02/24 00:54:44;;;;;;;2.63;1.52;;;;;;;;;;4968811;28;20133;-68
2022/02/24 00:57:13;;;;;;;3.17;1.38;;;;;;;;;;4971407;28;20125;-68
2022/02/24 00:59:41;;;;;;;4.60;1.27;;;;;;;;;;4970506;28;20085;-68
2022/02/24 01:02:10;;;;;;;6.43;1.58;;;;;;;;;;4966586;28;20042;-68
2022/02/24 01:04:40;;;;;;;2.65;1.63;;;;;;;;;;4970947;28;20054;-68
2022/02/24 01:07:09;;;;;;;4.05;1.45;;;;;;;;;;4971398;28;20149;-68
2022/02/24 01:09:37;;;;;;;4.70;1.70;;;;;;;;;;4969458;28;20086;-68
2022/02/24 01:12:05;;;;;;;3.45;1.60;;;;;;;;;;4971818;28;20093;-68
2022/02/24 01:14:34;;;;;;;4.10;1.50;;;;;;;;;;4970364;28;20093;-68
2022/02/24 01:17:02;;;;;;;3.35;1.60;;;;;;;;;;4968419;28;20053;-68
2022/02/24 01:19:30;;;;;;;4.93;1.58;;;;;;;;;;4963441;28;20142;-68
2022/02/24 01:22:00;;;;;;;5.50;1.98;;;;;;;;;;4971359;28;20070;-68
2022/02/24 01:24:28;;;;;;;4.80;1.75;;;;;;;;;;4969902;28;20130;-68
2022/02/24 01:26:56;;;;;;;4.38;1.70;;;;;;;;;;4971282;28;20054;-68
2022/02/24 01:29:25;;;;;;;3.20;1.60;;;;;;;;;;4969188;28;20146;-68
2022/02/24 01:31:53;;;;;;;7.32;1.80;;;;;;;;;;4970777;28;20055;-68
2022/02/24 01:34:25;;;;;;;6.10;1.75;;;;;;;;;;4965592;28;20522;-68
2022/02/24 01:36:53;;;;;;;2.13;1.23;;;;;;;;;;4971749;28;20194;-68
2022/02/24 01:39:23;;;;;;;3.40;1.92;;;;;;;;;;4969574;28;20495;-68
2022/02/24 01:41:52;;;;;;;3.33;1.60;;;;;;;;;;4970884;28;20149;-68
2022/02/24 01:44:20;;;;;;;4.07;1.50;;;;;;;;;;4969793;28;20142;-68
2022/02/24 01:46:48;;;;;;;5.97;1.88;;;;;;;;;;4971102;28;20051;-68
2022/02/24 01:49:20;;;;;;;3.78;1.83;;;;;;;;;;4967973;28;20067;-68
2022/02/24 01:51:49;;;;;;;3.22;1.60;;;;;;;;;;4965719;28;20058;-68
2022/02/24 01:54:17;;;;;;;3.13;1.83;;;;;;;;;;4967840;28;20093;-68
2022/02/24 01:56:47;;;;;;;3.08;1.75;;;;;;;;;;4970575;28;20062;-68
2022/02/24 01:59:15;;;;;;;6.47;2.03;;;;;;;;;;4969762;28;20460;-68
2022/02/24 02:01:44;;;;;;;3.40;1.80;;;;;;;;;;4970016;28;20039;-68
2022/02/24 02:04:16;;;;;;;2.25;1.35;;;;;;;;;;3640193;28;10024131;-68
2022/02/24 02:06:44;;;;;;;3.97;1.95;;;;;;;;;;1712862;28;10002047;-68
2022/02/24 02:09:12;;;;;;;3.20;1.70;;;;;;;;;;4967929;28;20150;-68
2022/02/24 02:11:41;;;;;;;5.55;1.75;;;;;;;;;;4968666;28;20134;-68
2022/02/24 02:14:11;;;;;;;6.90;2.22;;;;;;;;;;4969313;28;20493;-68
2022/02/24 02:16:43;;;;;;;3.42;1.98;;;;;;;;;;4969521;28;20122;-68
2022/02/24 02:19:11;;;;;;;3.90;1.50;;;;;;;;;;4969593;28;20058;-68
2022/02/24 02:21:41;;;;;;;4.55;1.67;;;;;;;;;;4970144;28;20078;-68
2022/02/24 02:24:10;;;;;;;6.55;2.10;;;;;;;;;;4969709;28;20046;-68
2022/02/24 02:26:38;;;;;;;5.32;2.30;;;;;;;;;;4965489;28;20227;-68
2022/02/24 02:29:07;;;;;;;4.20;2.10;;;;;;;;;;4968242;28;20051;-68
2022/02/24 02:31:36;;;;;;;5.70;1.85;;;;;;;;;;4970402;28;20043;-68
2022/02/24 02:34:05;;;;;;;6.50;1.90;;;;;;;;;;4966268;28;20137;-68
2022/02/24 02:36:33;;;;;;;3.30;1.50;;;;;;;;;;4969935;28;20122;-68
2022/02/24 02:39:04;;;;;;;6.05;2.05;;;;;;;;;;4968016;28;20050;-68
2022/02/24 02:41:33;;;;;;;7.47;1.85;;;;;;;;;;4947396;28;20348;-68
2022/02/24 02:44:02;;;;;;;6.50;1.60;;;;;;;;;;4948032;28;20087;-69
2022/02/24 02:46:31;;;;;;;5.40;1.70;;;;;;;;;;4950504;28;20440;-68
2022/02/24 02:48:59;;;;;;;3.35;1.63;;;;;;;;;;4950374;28;20049;-69
2022/02/24 02:51:28;;;;;;;2.40;1.50;;;;;;;;;;4949520;28;20047;-68
2022/02/24 02:53:57;;;;;;;4.78;1.75;;;;;;;;;;4953290;28;20057;-68
2022/02/24 02:56:26;;;;;;;3.00;1.45;;;;;;;;;;4946952;28;20448;-68
2022/02/24 02:58:55;;;;;;;4.15;1.70;;;;;;;;;;4949394;28;20141;-69
2022/02/24 03:01:23;;;;;;;1.95;1.40;;;;;;;;;;4950757;28;20055;-69
2022/02/24 03:03:52;;;;;;;2.72;1.40;;;;;;;;;;4951967;28;20137;-68
2022/02/24 03:06:20;;;;;;;3.05;1.40;;;;;;;;;;4947263;28;20153;-68
2022/02/24 03:08:49;;;;;;;2.55;1.25;;;;;;;;;;4950606;28;20110;-68
2022/02/24 03:11:17;;;;;;;3.72;1.45;;;;;;;;;;4949750;28;20131;-68
2022/02/24 03:13:47;;;;;;;4.25;1.52;;;;;;;;;;4950331;28;20067;-68
2022/02/24 03:16:15;;;;;;;2.30;1.48;;;;;;;;;;4948355;28;20122;-68
2022/02/24 03:18:43;;;;;;;3.35;1.83;;;;;;;;;;4953893;28;20090;-68
2022/02/24 03:21:11;;;;;;;2.83;1.55;;;;;;;;;;4952945;28;20066;-68
2022/02/24 03:23:41;;;;;;;2.45;1.33;;;;;;;;;;4952916;28;20093;-68
2022/02/24 03:26:09;;;;;;;3.55;1.60;;;;;;;;;;4953836;28;20047;-68
2022/02/24 03:28:37;;;;;;;2.20;1.65;;;;;;;;;;4954329;28;20047;-68
2022/02/24 03:31:07;;;;;;;5.47;1.52;;;;;;;;;;4953568;28;20075;-68
2022/02/24 03:33:35;;;;;;;2.92;1.48;;;;;;;;;;4953360;28;20498;-68
2022/02/24 03:36:07;;;;;;;5.30;1.80;;;;;;;;;;4953589;28;20110;-68
2022/02/24 03:38:35;;;;;;;4.00;1.42;;;;;;;;;;4952926;28;20496;-68
2022/02/24 03:41:07;;;;;;;2.92;1.90;;;;;;;;;;4954009;28;20165;-68
2022/02/24 03:43:35;;;;;;;4.45;1.50;;;;;;;;;;4953932;28;20074;-68
2022/02/24 03:46:08;;;;;;;3.20;1.80;;;;;;;;;;4953550;29;20130;-68
2022/02/24 03:48:36;;;;;;;3.67;1.70;;;;;;;;;;4953724;28;20054;-68
2022/02/24 03:51:07;;;;;;;3.95;1.60;;;;;;;;;;4949077;28;20141;-68
2022/02/24 03:53:35;;;;;;;4.72;1.65;;;;;;;;;;4951556;28;20526;-68
2022/02/24 03:56:07;;;;;;;1.92;1.27;;;;;;;;;;4952621;28;20051;-68
2022/02/24 03:58:36;;;;;;;3.67;1.77;;;;;;;;;;4954118;28;20040;-68
2022/02/24 04:01:08;;;;;;;3.78;1.85;;;;;;;;;;4952404;28;20618;-68
2022/02/24 04:03:37;;;;;;;2.88;1.63;;;;;;;;;;4951560;28;20534;-68
2022/02/24 04:06:06;;;;;;;3.80;1.63;;;;;;;;;;4951495;28;20146;-68
2022/02/24 04:08:34;;;;;;;2.80;1.92;;;;;;;;;;4951857;28;20043;-68
2022/02/24 04:11:24;;;;;;;2.52;1.66;;;;;;;;;;2614891;28;10004111;-69
2022/02/24 04:13:53;;;;;;;7.25;2.00;;;;;;;;;;3586162;28;10001206;-68
2022/02/24 04:16:22;;;;;;;4.10;1.88;;;;;;;;;;4952839;28;20185;-68
2022/02/24 04:18:51;;;;;;;3.25;1.52;;;;;;;;;;4953532;28;20090;-68
2022/02/24 04:21:19;;;;;;;4.78;2.00;;;;;;;;;;4951603;28;20055;-68
2022/02/24 04:23:48;;;;;;;6.38;1.70;;;;;;;;;;4952128;28;20090;-68
2022/02/24 04:26:16;;;;;;;2.95;1.65;;;;;;;;;;4949180;28;20083;-68
2022/02/24 04:28:44;;;;;;;2.78;1.60;;;;;;;;;;4951612;28;20657;-68
2022/02/24 04:31:12;;;;;;;3.45;1.90;;;;;;;;;;4947835;28;20483;-68
2022/02/24 04:33:42;;;;;;;3.67;1.30;;;;;;;;;;4952420;28;20334;-68
2022/02/24 04:36:12;;;;;;;3.28;1.80;;;;;;;;;;4952173;28;20129;-68
2022/02/24 04:38:40;;;;;;;4.25;1.60;;;;;;;;;;4952213;28;20903;-68
2022/02/24 04:41:09;;;;;;;3.40;1.80;;;;;;;;;;4947828;28;20386;-68
2022/02/24 04:43:37;;;;;;;5.65;1.65;;;;;;;;;;4950470;28;20075;-68
2022/02/24 04:46:05;;;;;;;3.83;2.20;;;;;;;;;;4952713;28;20047;-68
2022/02/24 04:48:34;;;;;;;3.50;1.85;;;;;;;;;;4952801;28;20178;-68
2022/02/24 04:51:07;;;;;;;2.63;1.55;;;;;;;;;;4951497;28;20078;-68
2022/02/24 04:53:35;;;;;;;6.45;2.03;;;;;;;;;;4952318;28;20079;-68
2022/02/24 04:56:06;;;;;;;4.00;1.63;;;;;;;;;;4951659;28;20043;-68
2022/02/24 04:58:35;;;;;;;3.22;1.80;;;;;;;;;;4945844;28;20047;-68
2022/02/24 05:01:06;;;;;;;2.40;1.58;;;;;;;;;;4948686;28;20051;-68
2022/02/24 05:03:35;;;;;;;3.97;1.65;;;;;;;;;;4948627;28;20059;-68
2022/02/24 05:06:08;;;;;;;3.03;2.00;;;;;;;;;;4950468;28;20051;-68
2022/02/24 05:08:36;;;;;;;2.67;1.80;;;;;;;;;;4952575;28;20078;-68
2022/02/24 05:11:08;;;;;;;3.60;2.10;;;;;;;;;;4953836;28;20075;-68
2022/02/24 05:13:36;;;;;;;2.35;1.58;;;;;;;;;;4951318;28;20179;-68
2022/02/24 05:16:07;;;;;;;3.38;1.58;;;;;;;;;;4950149;28;20114;-68
2022/02/24 05:18:36;;;;;;;4.85;1.80;;;;;;;;;;4951814;28;20090;-67
2022/02/24 05:21:09;;;;;;;3.60;1.48;;;;;;;;;;4949508;28;20125;-68
2022/02/24 05:23:37;;;;;;;3.08;2.00;;;;;;;;;;4951007;28;20047;-68
2022/02/24 05:26:06;;;;;;;4.13;1.67;;;;;;;;;;4951766;28;20074;-68
2022/02/24 05:28:34;;;;;;;3.65;1.77;;;;;;;;;;4948850;28;20621;-68
2022/02/24 05:31:06;;;;;;;2.67;1.70;;;;;;;;;;4948022;28;20078;-67
2022/02/24 05:33:35;;;;;;;1.67;1.50;;;;;;;;;;4947064;28;20061;-68
2022/02/24 05:36:06;;;;;;;1.67;1.30;;;;;;;;;;4951172;28;20043;-68
2022/02/24 05:38:36;;;;;;;4.03;1.65;;;;;;;;;;4949223;28;20055;-67
2022/02/24 05:41:08;;;;;;;6.30;1.63;;;;;;;;;;4950017;28;20066;-67
2022/02/24 05:43:36;;;;;;;2.97;1.90;;;;;;;;;;4948395;28;20052;-67
2022/02/24 05:46:07;;;;;;;4.53;2.15;;;;;;;;;;4951082;29;20117;-67
2022/02/24 05:48:36;;;;;;;5.63;2.00;;;;;;;;;;4950739;29;20054;-67
2022/02/24 05:51:07;;;;;;;6.85;2.20;;;;;;;;;;4947474;28;20408;-67
2022/02/24 05:53:37;;;;;;;8.70;2.10;;;;;;;;;;4940389;28;20083;-68
2022/02/24 05:56:08;;;;;;;4.80;2.08;;;;;;;;;;4941059;29;20141;-68
2022/02/24 05:58:37;;;;;;;8.25;1.92;;;;;;;;;;4943475;28;20047;-68
2022/02/24 06:01:09;;;;;;;6.15;2.08;;;;;;;;;;4952577;28;20670;-68
2022/02/24 06:03:37;;;;;;;2.75;1.50;;;;;;;;;;4955289;28;20066;-68
2022/02/24 06:06:25;;;;;;;2.08;1.35;;;;;;;;;;914017;28;10002682;-68
2022/02/24 06:08:55;;;;;;;5.32;1.70;;;;;;;;;;4974213;28;20743;-69
2022/02/24 06:11:23;;;;;;;3.67;1.75;;;;;;;;;;4971830;28;20052;-69
2022/02/24 06:13:53;;;;;;;4.47;1.65;;;;;;;;;;4975560;28;20066;-69
2022/02/24 06:16:21;;;;;;;2.83;1.42;;;;;;;;;;4973966;28;20051;-68
2022/02/24 06:18:50;;;;;;;2.65;1.65;;;;;;;;;;4974494;28;20177;-69
2022/02/24 06:21:19;;;;;;;2.97;1.80;;;;;;;;;;4973906;28;20062;-69
2022/02/24 06:23:47;;;;;;;5.43;2.08;;;;;;;;;;4973334;28;20354;-68
2022/02/24 06:26:17;;;;;;;4.35;1.80;;;;;;;;;;4974972;28;20153;-69
2022/02/24 06:28:46;;;;;;;3.80;1.77;;;;;;;;;;4974282;28;20161;-69
2022/02/24 06:31:14;;;;;;;3.40;1.85;;;;;;;;;;4942682;29;20079;-68
2022/02/24 06:33:43;;;;;;;3.72;1.77;;;;;;;;;;4944664;29;20138;-69
2022/02/24 06:36:14;;;;;;;4.10;1.77;;;;;;;;;;4944166;29;20046;-69
2022/02/24 06:38:43;;;;;;;3.35;1.58;;;;;;;;;;4946684;29;20130;-69
2022/02/24 06:41:11;;;;;;;5.32;2.35;;;;;;;;;;4961124;28;20043;-69
2022/02/24 06:43:41;;;;;;;2.67;1.75;;;;;;;;;;4961042;28;20503;-69
2022/02/24 06:46:09;;;;;;;3.25;1.77;;;;;;;;;;4959619;28;20039;-69
2022/02/24 06:48:38;;;;;;;3.72;2.00;;;;;;;;;;4964129;28;20081;-69
2022/02/24 06:51:07;;;;;;;2.70;1.80;;;;;;;;;;4961417;28;20042;-69
2022/02/24 06:53:35;;;;;;;2.17;1.60;;;;;;;;;;4962449;28;20494;-69
2022/02/24 06:56:07;;;;;;;3.78;1.92;;;;;;;;;;4958942;28;20518;-69
2022/02/24 06:58:41;;;;;;;6.63;1.55;;;;;;;;;;4965695;28;20477;-69
2022/02/24 07:01:10;;;;;;;3.53;1.67;;;;;;;;;;4968239;28;20055;-69
2022/02/24 07:03:39;;;;;;;3.25;1.70;;;;;;;;;;4963685;28;20133;-69
2022/02/24 07:06:07;;;;;;;4.28;1.70;;;;;;;;;;4963392;28;20058;-69
2022/02/24 07:08:36;;;;;;;4.45;1.63;;;;;;;;;;4963730;28;20511;-69
2022/02/24 07:11:06;;;;;;;3.90;1.80;;;;;;;;;;4965996;28;20055;-69
2022/02/24 07:13:34;;;;;;;5.68;2.55;;;;;;;;;;4966753;28;20162;-69
2022/02/24 07:16:24;;;;;;;6.47;2.25;;;;;;;;;;4960188;28;20242;-69
2022/02/24 07:18:52;;;;;;;5.60;2.13;;;;;;;;;;4964243;28;20055;-71
2022/02/24 07:21:21;;;;;;;3.67;1.90;;;;;;;;;;4952205;28;20121;-69
2022/02/24 07:23:49;;;;;;;3.42;1.75;;;;;;;;;;4957729;28;20419;-69
2022/02/24 07:26:18;;;;;;;4.43;2.28;;;;;;;;;;4957943;28;20059;-69
2022/02/24 07:28:46;;;;;;;6.15;2.17;;;;;;;;;;4954912;28;20047;-69
2022/02/24 07:31:15;;;;;;;2.58;1.98;;;;;;;;;;4949734;28;20482;-67
2022/02/24 07:33:45;;;;;;;2.97;1.33;;;;;;;;;;4959186;28;20094;-67
2022/02/24 07:36:14;;;;;;;2.95;1.58;;;;;;;;;;4958898;28;20101;-70
2022/02/24 07:38:42;;;;;;;3.20;1.92;;;;;;;;;;4955291;28;20245;-68
2022/02/24 07:41:10;;;;;;;6.38;2.10;;;;;;;;;;4958299;28;20589;-68
2022/02/24 07:43:39;;;;;;;7.10;2.20;;;;;;;;;;4959446;28;20043;-68
2022/02/24 07:46:07;;;;;;;8.85;2.45;;;;;;;;;;4959130;28;20039;-69
2022/02/24 07:48:36;;;;;;;6.28;1.92;;;;;;;;;;4955873;28;20450;-72
2022/02/24 07:51:09;;;;;;;5.72;2.08;;;;;;;;;;4959754;28;20043;-68
2022/02/24 07:53:38;;;;;;;3.85;2.05;;;;;;;;;;4959145;28;20130;-68
2022/02/24 07:56:07;;;;;;;4.07;1.60;;;;;;;;;;4953304;28;20078;-68
2022/02/24 07:58:35;;;;;;;3.58;2.53;;;;;;;;;;4960221;28;20055;-68
2022/02/24 08:01:07;;;;;;;2.30;1.77;;;;;;;;;;4976222;28;20050;-68
2022/02/24 08:03:36;;;;;;;3.80;1.88;;;;;;;;;;4979579;28;20069;-68
2022/02/24 08:06:22;;;;;;;3.03;2.08;;;;;;;;;;795292;28;10002478;-68
2022/02/24 08:08:52;;;;;;;4.03;2.00;;;;;;;;;;4973612;28;20358;-69
2022/02/24 08:11:21;;;;;;;4.97;2.05;;;;;;;;;;4951362;29;20575;-69
2022/02/24 08:13:50;;;;;;;6.03;2.15;;;;;;;;;;4949478;28;20043;-69
2022/02/24 08:16:21;;;;;;;4.53;2.55;;;;;;;;;;4954054;28;20402;-69
2022/02/24 08:18:50;;;;;;;4.38;1.92;;;;;;;;;;4953637;28;20047;-69
2022/02/24 08:21:19;;;;;;;4.80;2.10;;;;;;;;;;4970826;28;20407;-70
2022/02/24 08:23:49;;;;;;;7.03;2.20;;;;;;;;;;4972007;28;20046;-70
2022/02/24 08:26:17;;;;;;;4.32;2.25;;;;;;;;;;4973335;28;20053;-70
2022/02/24 08:28:46;;;;;;;3.72;1.92;;;;;;;;;;4971399;28;20049;-70
2022/02/24 08:31:15;;;;;;;3.72;1.95;;;;;;;;;;4969567;28;20134;-70
2022/02/24 08:33:44;;;;;;;6.05;2.42;;;;;;;;;;4970899;28;20049;-70
2022/02/24 08:36:13;;;;;;;4.03;1.58;;;;;;;;;;4969328;28;20108;-70
2022/02/24 08:38:42;;;;;;;5.32;1.88;;;;;;;;;;4981272;28;20487;-69
2022/02/24 08:41:32;;;;;;;4.72;1.90;;;;;;;;;;4942352;29;20047;-69
2022/02/24 08:44:01;;;;;;;6.72;2.05;;;;;;;;;;4951452;28;20091;-69
2022/02/24 08:46:30;;;;;;;3.05;1.60;;;;;;;;;;4952270;28;20051;-69
2022/02/24 08:48:59;;;;;;;3.30;1.60;;;;;;;;;;4950980;28;20138;-69
2022/02/24 08:51:30;;;;;;;2.13;1.48;;;;;;;;;;4951175;28;20133;-70
2022/02/24 08:53:58;;;;;;;3.13;1.88;;;;;;;;;;4952282;28;20581;-69
2022/02/24 08:56:27;;;;;;;3.13;1.83;;;;;;;;;;4952332;28;20574;-69
2022/02/24 08:58:57;;;;;;;2.95;1.45;;;;;;;;;;4952666;28;20408;-69
2022/02/24 09:01:25;;;;;;;1.85;1.38;;;;;;;;;;4960641;28;20122;-69
2022/02/24 09:03:55;;;;;;;4.45;1.63;;;;;;;;;;4949569;28;20055;-69
2022/02/24 09:06:23;;;;;;;3.63;1.88;;;;;;;;;;4950954;28;20578;-69
2022/02/24 09:08:52;;;;;;;3.00;1.67;;;;;;;;;;4956620;28;20051;-70
2022/02/24 09:11:24;;;;;;;3.25;1.42;;;;;;;;;;4961078;28;20058;-69
2022/02/24 09:13:53;;;;;;;3.08;1.45;;;;;;;;;;4948978;28;20047;-70
2022/02/24 09:16:23;;;;;;;3.38;1.25;;;;;;;;;;4952677;29;20047;-70
2022/02/24 09:18:52;;;;;;;3.22;1.55;;;;;;;;;;4951190;28;20055;-70
2022/02/24 09:21:22;;;;;;;3.53;1.50;;;;;;;;;;4948982;28;20114;-70
2022/02/24 09:23:51;;;;;;;2.60;1.30;;;;;;;;;;4951350;28;20786;-69
2022/02/24 09:26:20;;;;;;;2.97;1.20;;;;;;;;;;4952145;28;20051;-70
2022/02/24 09:28:49;;;;;;;2.75;1.23;;;;;;;;;;4951148;29;20055;-70
2022/02/24 09:31:18;;;;;;;2.33;1.23;;;;;;;;;;4952324;28;20134;-70
2022/02/24 09:33:48;;;;;;;6.40;1.38;;;;;;;;;;4951739;29;20158;-70
2022/02/24 09:36:17;;;;;;;4.13;1.15;;;;;;;;;;4950032;28;20048;-70
2022/02/24 09:38:46;;;;;;;2.60;1.20;;;;;;;;;;4951110;28;20049;-70
2022/02/24 09:41:15;;;;;;;1.70;1.30;;;;;;;;;;4945816;28;20057;-70
2022/02/24 09:43:44;;;;;;;4.50;1.38;;;;;;;;;;4950892;29;20079;-70
2022/02/24 09:46:17;;;;;;;2.13;1.08;;;;;;;;;;4951379;28;20325;-70
2022/02/24 09:48:48;;;;;;;2.35;1.27;;;;;;;;;;4950478;28;20059;-70
2022/02/24 09:51:18;;;;;;;2.58;0.90;;;;;;;;;;4950195;28;20047;-71
2022/02/24 09:53:47;;;;;;;2.15;1.23;;;;;;;;;;4950280;29;20496;-70
2022/02/24 09:56:17;;;;;;;2.10;1.23;;;;;;;;;;4950034;29;20047;-71
2022/02/24 09:58:47;;;;;;;3.55;1.00;;;;;;;;;;4951110;29;20074;-70
2022/02/24 10:01:17;;;;;;;1.02;0.82;;;;;;;;;;4944704;28;20090;-70
2022/02/24 10:03:57;;;;;;;5.18;1.40;;;;;;;;;;4619439;28;10000961;-71
2022/02/24 10:06:26;;;;;;;;;;;;;;;;;;1026693;28;10002030;-70
2022/02/24 10:08:54;;;;;;;2.47;1.10;;;;;;;;;;4969017;28;19930;-70
2022/02/24 10:11:25;;;;;;;3.70;1.33;;;;;;;;;;4969659;28;20073;-71
2022/02/24 10:13:58;;;;;;;3.83;0.93;;;;;;;;;;4970124;28;20047;-70
2022/02/24 10:16:27;;;;;;;2.67;1.17;;;;;;;;;;4966586;28;20043;-70
2022/02/24 10:18:58;;;;;;;2.63;1.10;;;;;;;;;;4971052;28;20054;-70
2022/02/24 10:21:27;;;;;;;3.08;1.10;;;;;;;;;;4968067;28;20126;-70
2022/02/24 10:23:56;;;;;;;2.85;0.80;;;;;;;;;;4968930;28;20054;-70
2022/02/24 10:26:25;;;;;;;1.98;0.80;;;;;;;;;;4968036;28;20047;-70
2022/02/24 10:28:54;;;;;;;4.03;1.13;;;;;;;;;;4963615;28;20503;-70
2022/02/24 10:31:24;;;;;;;2.60;0.75;;;;;;;;;;4962848;28;20271;-70
2022/02/24 10:34:10;;;;;;;2.72;0.80;;;;;;;;;;4967981;28;20392;-70
2022/02/24 10:36:40;;;;;;;0.95;0.50;;;;;;;;;;4959517;28;20510;-71
2022/02/24 10:39:10;;;;;;;1.23;0.63;;;;;;;;;;4968729;28;20097;-71
2022/02/24 10:41:40;;;;;;;4.40;0.70;;;;;;;;;;4968721;28;20049;-71
2022/02/24 10:44:12;;;;;;;2.97;0.82;;;;;;;;;;4970345;28;20073;-71
2022/02/24 10:46:43;;;;;;;1.77;0.77;;;;;;;;;;4967712;28;20046;-71
2022/02/24 10:49:27;;;;;;;2.13;0.85;;;;;;;;;;4964459;28;20054;-71
2022/02/24 10:52:14;;;;;;;2.78;0.88;;;;;;;;;;4968985;28;20051;-71
2022/02/24 10:54:43;;;;;;;13.80;3.03;;;;;;;;;;4970669;28;20137;-71
2022/02/24 10:57:17;;;;;;;2.20;0.80;;;;;;;;;;4969358;28;20039;-71
2022/02/24 10:59:45;;;;;;;2.08;0.95;;;;;;;;;;4968745;28;20050;-71
2022/02/24 11:02:15;;;;;;;1.52;0.70;;;;;;;;;;4966111;28;20078;-71
2022/02/24 11:04:44;;;;;;;2.00;0.63;;;;;;;;;;4964462;28;20054;-71
2022/02/24 11:07:14;;;;;;;2.95;0.77;;;;;;;;;;4965023;28;20050;-71
2022/02/24 11:09:45;;;;;;;3.63;1.00;;;;;;;;;;4968381;28;20113;-72
2022/02/24 11:12:15;;;;;;;2.33;1.08;;;;;;;;;;4965255;28;20183;-72
2022/02/24 11:14:46;;;;;;;4.50;1.20;;;;;;;;;;4964436;28;20061;-71
2022/02/24 11:17:15;;;;;;;1.77;0.70;;;;;;;;;;4968424;28;20050;-71
2022/02/24 11:19:44;;;;;;;1.55;0.80;;;;;;;;;;4967262;28;20046;-71
2022/02/24 11:22:15;;;;;;;4.03;0.73;;;;;;;;;;4968485;28;20085;-72
2022/02/24 11:24:44;;;;;;;1.88;0.85;;;;;;;;;;4970185;28;20050;-71
2022/02/24 11:27:14;;;;;;;1.63;0.73;;;;;;;;;;4969600;28;20093;-69
2022/02/24 11:29:46;;;;;;;4.15;0.98;;;;;;;;;;4961050;28;20047;-70
2022/02/24 11:32:17;;;;;;;1.33;1.08;;;;;;;;;;4964881;28;20117;-69
2022/02/24 11:35:06;;;;;;;3.38;1.00;;;;;;;;;;4970003;28;20070;-69
2022/02/24 11:37:37;;;;;;;1.25;0.90;;;;;;;;;;4968775;28;20609;-70
2022/02/24 11:40:09;;;;;;;1.33;0.77;;;;;;;;;;4968203;28;20500;-70
2022/02/24 11:42:38;;;;;;;1.45;0.80;;;;;;;;;;4971731;28;20055;-69
2022/02/24 11:45:26;;;;;;;0.90;0.70;;;;;;;;;;4972853;28;20055;-70
2022/02/24 11:47:58;;;;;;;2.92;1.10;;;;;;;;;;4970102;28;20055;-70
2022/02/24 11:50:32;;;;;;;2.92;0.90;;;;;;;;;;4969909;28;20509;-70
2022/02/24 11:53:02;;;;;;;2.78;0.60;;;;;;;;;;4968669;28;20055;-70
2022/02/24 11:55:40;;;;;;;1.73;0.68;;;;;;;;;;4973015;28;20074;-70
2022/02/24 11:58:28;;;;;;;1.85;0.88;;;;;;;;;;4973675;28;20400;-70
2022/02/24 12:01:08;;;;;;;1.20;0.70;;;;;;;;;;4967975;28;20051;-70
2022/02/24 12:03:52;;;;;;;2.28;0.93;;;;;;;;;;4968222;28;20134;-70
2022/02/24 12:06:22;;;;;;;1.75;0.75;;;;;;;;;;4967307;28;20450;-72
2022/02/24 12:09:06;;;;;;;2.33;0.80;;;;;;;;;;4950114;28;20046;-70
2022/02/24 12:11:38;;;;;;;0.80;0.60;;;;;;;;;;4952741;28;20529;-70
2022/02/24 12:14:25;;;;;;;3.72;0.68;;;;;;;;;;4968770;28;20094;-71
2022/02/24 12:17:06;;;;;;;1.20;0.80;;;;;;;;;;4955147;28;20061;-71
2022/02/24 12:19:57;;;;;;;6.88;1.08;;;;;;;;;;4967044;28;20050;-70
2022/02/24 12:22:33;;;;;;;1.50;0.70;;;;;;;;;;4964312;28;20165;-70
2022/02/24 12:25:09;;;;;;;2.72;0.82;;;;;;;;;;4969182;28;20502;-71
2022/02/24 12:27:40;;;;;;;2.40;0.73;;;;;;;;;;4968306;28;20061;-70
2022/02/24 12:30:26;;;;;;;1.98;0.93;;;;;;;;;;4965658;28;20057;-70
2022/02/24 12:32:57;;;;;;;1.85;0.88;;;;;;;;;;4965966;28;20055;-69
2022/02/24 12:35:28;;;;;;;2.72;0.98;;;;;;;;;;4967987;28;20093;-70
2022/02/24 12:37:58;;;;;;;1.98;0.88;;;;;;;;;;4964778;28;20098;-70
2022/02/24 12:40:30;;;;;;;2.67;0.95;;;;;;;;;;4965343;28;20093;-70
2022/02/24 12:43:00;;;;;;;2.03;0.75;;;;;;;;;;4967754;28;20509;-71
2022/02/24 12:45:30;;;;;;;1.85;0.90;;;;;;;;;;4965969;28;20054;-71
2022/02/24 12:48:07;;;;;;;5.18;1.20;;;;;;;;;;4966060;28;20487;-70
2022/02/24 12:50:38;;;;;;;0.65;0.65;;;;;;;;;;4967709;28;20469;-70
2022/02/24 12:53:08;;;;;;;1.05;0.77;;;;;;;;;;4968007;28;20074;-70
2022/02/24 12:55:39;;;;;;;2.25;0.63;;;;;;;;;;4966388;28;20459;-70
2022/02/24 12:58:09;;;;;;;1.38;0.80;;;;;;;;;;4965950;28;20289;-71
2022/02/24 13:00:38;;;;;;;2.67;0.98;;;;;;;;;;4958426;28;20078;-71
2022/02/24 13:03:08;;;;;;;2.35;0.90;;;;;;;;;;4967133;28;20049;-71
2022/02/24 13:05:47;;;;;;;3.70;0.98;;;;;;;;;;4965962;28;20542;-70
2022/02/24 13:11:07;;;;;;;2.22;0.90;;;;;;;;;;4964426;28;20486;-70
2022/02/24 13:13:36;;;;;;;1.42;0.73;;;;;;;;;;4961919;28;20055;-71
2022/02/24 13:16:08;;;;;;;2.58;0.68;;;;;;;;;;4966404;28;20061;-71
2022/02/24 13:18:39;;;;;;;1.45;0.80;;;;;;;;;;4969977;28;20042;-71
2022/02/24 13:21:09;;;;;;;0.88;0.75;;;;;;;;;;4967841;28;20058;-71
2022/02/24 13:23:39;;;;;;;3.28;0.93;;;;;;;;;;4956038;28;20601;-71
2022/02/24 13:26:10;;;;;;;0.90;0.60;;;;;;;;;;4970184;28;20081;-72
2022/02/24 13:28:41;;;;;;;1.92;0.75;;;;;;;;;;4960012;28;20084;-71
2022/02/24 13:31:10;;;;;;;3.90;0.73;;;;;;;;;;4970438;28;20050;-72
2022/02/24 13:33:39;;;;;;;2.03;1.10;;;;;;;;;;4968524;28;20136;-72
2022/02/24 13:36:31;;;;;;;1.68;0.48;;;;;;;;;;4194800;28;10001974;-72
2022/02/24 13:39:00;;;;;;;1.52;0.70;;;;;;;;;;2054156;28;10002093;-71
2022/02/24 13:41:35;;;;;;;1.52;0.60;;;;;;;;;;4954078;28;20082;-71
2022/02/24 13:44:03;;;;;;;1.85;0.68;;;;;;;;;;4948487;28;20055;-71
2022/02/24 13:46:41;;;;;;;1.13;0.55;;;;;;;;;;4949883;28;20047;-71
2022/02/24 13:49:10;;;;;;;1.92;0.80;;;;;;;;;;4950252;28;20058;-72
2022/02/24 13:51:39;;;;;;;2.05;0.80;;;;;;;;;;4950901;29;20078;-71
2022/02/24 13:54:07;;;;;;;0.93;0.65;;;;;;;;;;4949895;28;20062;-72
2022/02/24 13:56:43;;;;;;;3.70;0.95;;;;;;;;;;4949230;29;20047;-71
2022/02/24 13:59:21;;;;;;;3.83;0.95;;;;;;;;;;4949828;28;20136;-71
2022/02/24 14:01:51;;;;;;;1.80;1.08;;;;;;;;;;4949957;28;20047;-72
2022/02/24 14:04:23;;;;;;;2.60;0.85;;;;;;;;;;4944909;29;20078;-70
2022/02/24 14:06:53;;;;;;;1.63;0.57;;;;;;;;;;4950358;29;20051;-70
2022/02/24 14:09:23;;;;;;;3.42;0.68;;;;;;;;;;4949877;28;20104;-70
2022/02/24 14:11:53;;;;;;;2.20;0.90;;;;;;;;;;4950282;28;20082;-71
2022/02/24 14:14:23;;;;;;;2.70;0.77;;;;;;;;;;4950800;29;20114;-70
2022/02/24 14:16:51;;;;;;;3.97;1.20;;;;;;;;;;4950500;28;20134;-70
2022/02/24 14:19:24;;;;;;;3.60;1.30;;;;;;;;;;4948196;28;20099;-70
2022/02/24 14:21:53;;;;;;;1.17;0.70;;;;;;;;;;4950845;29;20051;-73
2022/02/24 14:24:22;;;;;;;2.25;0.95;;;;;;;;;;4944366;29;20051;-70
2022/02/24 14:26:53;;;;;;;1.55;0.75;;;;;;;;;;4948246;29;20483;-70
2022/02/24 14:29:23;;;;;;;2.17;0.95;;;;;;;;;;4948267;28;20431;-70
2022/02/24 14:31:52;;;;;;;4.50;0.77;;;;;;;;;;4949933;28;20503;-71
2022/02/24 14:34:21;;;;;;;3.35;0.80;;;;;;;;;;4948086;28;20079;-70
2022/02/24 14:36:49;;;;;;;2.05;0.82;;;;;;;;;;4941732;28;20414;-71
2022/02/24 14:39:19;;;;;;;2.70;0.80;;;;;;;;;;4946721;28;20142;-71
2022/02/24 14:41:47;;;;;;;2.75;1.05;;;;;;;;;;4947256;28;20047;-70
2022/02/24 14:44:18;;;;;;;3.55;0.90;;;;;;;;;;4946513;29;20055;-70
2022/02/24 14:46:46;;;;;;;4.82;1.00;;;;;;;;;;4947370;29;20062;-71
2022/02/24 14:49:15;;;;;;;2.08;0.85;;;;;;;;;;4943459;28;20051;-71
2022/02/24 14:52:01;;;;;;;3.05;0.90;;;;;;;;;;4949668;28;20059;-71
2022/02/24 14:54:32;;;;;;;5.50;0.93;;;;;;;;;;4934051;29;20504;-71
2022/02/24 14:57:02;;;;;;;1.48;0.70;;;;;;;;;;4949966;28;20050;-71
2022/02/24 14:59:32;;;;;;;1.73;0.70;;;;;;;;;;4943922;28;20514;-71
2022/02/24 15:02:01;;;;;;;3.15;0.93;;;;;;;;;;4946593;28;20479;-72
2022/02/24 15:04:30;;;;;;;2.70;0.85;;;;;;;;;;4946436;28;20119;-72
2022/02/24 15:06:58;;;;;;;2.78;0.90;;;;;;;;;;4949513;28;20469;-72